Weather at Ørland Airport

Public forecast

Using degrees Celsius for public forecast. Weather courtesy of forecast.io.

Current aviation weather report (METAR) for Ørland Airport

2024/05/20 04:50 (retrieved 33 minutes ago)

ENOL 200450Z 11007KT 9999 FEW035 SCT200 07/03 Q1021 NOSIG

Closest aviation forecast (TAF) to Ørland Airport

Forecast is more than 6 hours old.

Closest forecast is Lutselk'e Airport, 2,778.7 nm (5,146.2 km) NNW.

2024/05/19 19:00 (retrieved 10 hours ago)

TAF CYLK 191840Z 1919/1924 06012G22KT P6SM FEW015 RMK NXT FCST BY 201600Z